Sunday, October 21, 2018, 11:29 PM EDT
Back to Local

KMGJ, Montgomery Orange Co Airport

Location: Montgomery, NY, United States Lat: 41.517
Local Time: 11:29 PM EDT ( 3:29 GMT) Lon: -74.267
Time Zone: US/Eastern Elev: 354 ft

Show me the last for .
Show Decoded

2018-10-21 22:54 METAR KMGJ 220254Z AUTO 23003KT 10SM OVC050 01/M02 A3014 RMK AO2 SLP209
                 T00111022 53012 =
2018-10-21 21:54 METAR KMGJ 220154Z AUTO 22004KT 10SM FEW055 01/M04 A3013 RMK AO2 SLP205
                 T00061039 =
2018-10-21 20:54 METAR KMGJ 220054Z AUTO 30005KT 10SM CLR 03/M04 A3011 RMK AO2 SLP200 T00281044 =
2018-10-21 19:54 METAR KMGJ 212354Z AUTO 30012G17KT 10SM CLR 04/M06 A3010 RMK AO2 SLP197
                 T00391056 10078 20028 53027 =
2018-10-21 18:54 METAR KMGJ 212254Z AUTO 35004KT 10SM FEW055 04/M05 A3008 RMK AO2 SLP187
                 T00391050 =
2018-10-21 17:54 METAR KMGJ 212154Z AUTO 34007G17KT 10SM OVC055 06/M05 A3005 RMK AO2 SLP177
                 T00561050 =
2018-10-21 16:54 METAR KMGJ 212054Z AUTO 30010G19KT 10SM OVC055 07/M05 A3002 RMK AO2 SLP168
                 T00671050 53016 =
2018-10-21 15:54 METAR KMGJ 211954Z AUTO 32008G18KT 10SM BKN055 07/M04 A2999 RMK AO2 PK WND
                 33027/1916 SLP159 T00671044 =
2018-10-21 14:54 METAR KMGJ 211854Z AUTO 32013G26KT 10SM OVC055 06/M04 A2998 RMK AO2 PK WND
                 35026/1849 SLP153 T00611044 =
2018-10-21 13:54 METAR KMGJ 211754Z AUTO 34018G28KT 10SM OVC049 07/M04 A2998 RMK AO2 PK WND
                 30029/1709 SLP152 T00671044 10072 20050 52008 =
2018-10-21 12:54 METAR KMGJ 211654Z AUTO 34020G25KT 10SM SCT046 OVC055 07/M03 A2997 RMK AO2 PK
                 WND 35026/1628 SLP149 T00671033 =
2018-10-21 11:54 METAR KMGJ 211554Z AUTO 35012KT 10SM OVC043 07/M02 A2996 RMK AO2 SLP148
                 T00671022 =
2018-10-21 10:54 METAR KMGJ 211454Z AUTO 31017G23KT 10SM OVC041 05/M03 A2995 RMK AO2 PK WND
                 31028/1403 SLP144 T00501033 51036 =
2018-10-21 09:54 METAR KMGJ 211354Z AUTO 33015G26KT 10SM OVC042 06/M03 A2994 RMK AO2 PK WND
                 33029/1340 SLP139 T00561028 =
2018-10-21 08:54 METAR KMGJ 211254Z AUTO 34017G24KT 10SM BKN042 06/M03 A2990 RMK AO2 PK WND
                 31028/1235 SLP126 T00561033 =
2018-10-21 07:54 METAR KMGJ 211154Z AUTO 33011KT 10SM FEW120 06/M02 A2984 RMK AO2 PK WND
                 33030/1138 SLP107 60000 70009 T00561022 10078 20056 53055 =
2018-10-21 06:54 METAR KMGJ 211054Z AUTO 34011G21KT 10SM BKN110 07/M01 A2979 RMK AO2 SLP088
                 T00671011 =
2018-10-21 05:54 METAR KMGJ 210954Z AUTO 30007KT 10SM OVC070 07/03 A2973 RMK AO2 PRESRR SLP069
                 T00720033 =
2018-10-21 04:54 METAR KMGJ 210854Z AUTO 30007KT 10SM OVC060 07/04 A2968 RMK AO2 RAB19E34 SLP051
                 P0000 60000 T00720039 53022 =
2018-10-21 03:54 METAR KMGJ 210754Z AUTO 31008KT 10SM OVC060 08/04 A2964 RMK AO2 SLP037 T00780044
                 =
2018-10-21 02:54 METAR KMGJ 210654Z AUTO 31005KT 10SM BKN049 OVC055 07/06 A2963 RMK AO2 RAE04
                 SLP035 P0000 T00720056 =
2018-10-21 01:54 METAR KMGJ 210554Z AUTO 03008KT 10SM -RA BKN035 OVC045 08/06 A2962 RMK AO2
                 SLP029 P0004 60009 T00780061 10106 20078 58003 =
2018-10-21 01:31 METAR KMGJ 210531Z AUTO 35007KT 10SM -RA FEW019 SCT027 OVC035 08/07 A2963 RMK
                 AO2 P0003 T00830067 =
2018-10-21 01:01 METAR KMGJ 210501Z AUTO 33006KT 8SM -RA BKN024 OVC035 08/07 A2963 RMK AO2 P0000
                 T00830072 =
2018-10-21 00:54 METAR KMGJ 210454Z AUTO 31006KT 10SM -RA SCT024 OVC035 09/07 A2963 RMK AO2
                 SLP035 P0002 T00890072 401780083 =
2018-10-21 00:51 METAR KMGJ 210451Z AUTO 31006KT 10SM -RA SCT026 OVC035 09/07 A2963 RMK AO2 P0001
                 =
2018-10-21 00:42 METAR KMGJ 210442Z AUTO 31003KT 10SM -RA BKN026 OVC035 09/07 A2963 RMK AO2 P0001
                 T00890072 =
2018-10-20 23:54 METAR KMGJ 210354Z AUTO 00000KT 9SM -RA OVC042 09/07 A2963 RMK AO2 SLP032 P0003
                 T00890067 =

Support USWX by starting your Amazon purchase here.